Ana Sayfa
METAR-TAF:

METAR-TAF

Havaalanları :

Paros, Yunanistan

Enlem: 37-01-15N, Boylam: 025-06-46E, yükseklik: 38 m

Güncel hava durumu gözlemi

Rapor saat 03:20 UTC de 11 dakika önce yapıldı.
Rüzgar güneydoğudan 9 kt
Sıcaklık 12°C
Nem 94%
Basınç 1001 hPa

METAR: LGPA 260320Z AUTO 14009KT //// // ////// 12/11 Q1001 RE//

Saat: 05:31 (03:31 UTC)


TAF: eksik

4.000'den fazla havaalanı için hava durumu gözlemleri ve tahminleri (METAR ve TAF raporları).

Kullanılabilir istasyonlar harita üzerinde sarı ve kırmızı noktalarla gösterilir.

İstasyonun adını görmek için fareyi noktanın üzerinde gezdirin.

Sonrasında hava gözlem ve tahminlerini görmek için tıklayın.

Haritayı değiştirmek için: yaklaştırmak için siyah artı işaretli yeşil düğmeye ve uzaklaştırmak için de eksi işaretli düğmeye hızla tıklayın; bitişik haritalar için yeşil okları kullanın.


METAR-TAF: